Time;durP1;ratioP1;P1;durP2;ratioP2;P2;SDS_P1;SDS_P2;PMS_P1;PMS_P2;Temp;Humidity;BMP_temperature;BMP_pressure;BME280_temperature;BME280_humidity;BME280_pressure;Samples;Min_cycle;Max_cycle;Signal;HPM_P1;HPM_P2
2022/10/29 01:29:03;;;;;;;;;;;;;;;13.32;72.57;99815.63;5251030;28;19968;-85
2022/10/29 01:32:03;;;;;;;;;;;;;;;13.34;72.74;99817.16;5245122;28;20020;-84
2022/10/29 01:34:54;;;;;;;;;;;;;;;13.22;72.66;99814.75;5231368;28;19927;-84
2022/10/29 01:38:00;;;;;;;;;;;;;;;13.28;73.35;99822.22;5225398;28;19943;-85
2022/10/29 01:41:02;;;;;;;;;;;;;;;13.31;72.77;99824.56;5225913;28;19928;-84
2022/10/29 01:43:55;;;;;;;;;;;;;;;13.28;72.61;99827.53;5239482;28;19916;-84
2022/10/29 01:46:48;;;;;;;;;;;;;;;13.16;72.38;99827.63;5258110;28;19932;-83
2022/10/29 01:49:39;;;;;;;;;;;;;;;13.29;72.44;99823.91;5241419;28;19928;-84
2022/10/29 01:52:31;;;;;;;;;;;;;;;13.18;72.14;99830.19;5241659;28;19927;-84
2022/10/29 01:55:28;;;;;;;;;;;;;;;13.15;72.20;99825.13;5241670;28;19920;-84
2022/10/29 01:58:18;;;;;;;;;;;;;;;13.28;72.61;99816.91;5242168;28;19997;-85
2022/10/29 02:01:17;;;;;;;;;;;;;;;13.16;72.48;99818.81;5207241;28;20573;-85
2022/10/29 02:04:08;;;;;;;;;;;;;;;13.18;72.36;99806.22;5235511;28;19928;-84
2022/10/29 02:07:21;;;;;;;;;;;;;;;13.17;72.93;99799.19;5227507;28;19943;-84
2022/10/29 02:10:11;;;;;;;;;;;;;;;13.07;72.30;99793.84;5233742;28;19920;-85
2022/10/29 02:13:01;;;;;;;;;;;;;;;13.06;72.11;99799.34;5255664;28;19959;-85
2022/10/29 02:15:53;;;;;;;;;;;;;;;13.05;72.60;99792.34;5262087;28;19927;-85
2022/10/29 02:18:44;;;;;;;;;;;;;;;13.11;72.26;99786.41;5243929;28;19931;-85
2022/10/29 02:21:34;;;;;;;;;;;;;;;13.09;72.24;99788.41;5243971;28;19974;-85
2022/10/29 02:24:24;;;;;;;;;;;;;;;13.00;72.67;99792.75;5232552;28;20081;-83
2022/10/29 02:27:15;;;;;;;;;;;;;;;13.04;72.69;99778.16;5232854;28;19930;-85
2022/10/29 02:30:05;;;;;;;;;;;;;;;13.03;71.84;99771.16;5260993;28;19931;-83
2022/10/29 02:32:55;;;;;;;;;;;;;;;13.04;72.31;99758.69;5243763;28;20393;-85
2022/10/29 02:35:45;;;;;;;;;;;;;;;13.06;72.07;99768.22;5240684;28;19920;-85
2022/10/29 02:38:35;;;;;;;;;;;;;;;12.93;71.81;99773.00;5226677;28;20524;-85
2022/10/29 02:41:25;;;;;;;;;;;;;;;12.92;72.28;99779.31;5251009;28;19974;-83
2022/10/29 02:44:15;;;;;;;;;;;;;;;12.86;72.19;99782.50;5247006;28;19952;-84
2022/10/29 02:47:05;;;;;;;;;;;;;;;12.87;72.54;99786.84;5263485;28;19973;-85
2022/10/29 02:49:55;;;;;;;;;;;;;;;12.89;72.21;99782.25;5234343;28;19947;-84
2022/10/29 02:52:45;;;;;;;;;;;;;;;12.92;72.00;99780.13;5227893;28;19943;-85
2022/10/29 02:55:35;;;;;;;;;;;;;;;13.01;72.07;99780.25;5240820;28;20426;-85
2022/10/29 02:58:25;;;;;;;;;;;;;;;12.94;72.59;99772.84;5260904;28;19931;-85
2022/10/29 03:01:14;;;;;;;;;;;;;;;12.89;72.20;99766.28;5255018;28;20369;-83
2022/10/29 03:04:04;;;;;;;;;;;;;;;12.87;72.21;99770.88;5257911;28;19959;-84
2022/10/29 03:06:54;;;;;;;;;;;;;;;12.66;72.83;99774.50;5242553;28;19931;-85
2022/10/29 03:09:44;;;;;;;;;;;;;;;12.69;72.36;99778.72;5246773;28;19944;-86
2022/10/29 03:12:34;;;;;;;;;;;;;;;12.76;72.51;99781.66;5245334;28;19943;-85
2022/10/29 03:15:24;;;;;;;;;;;;;;;12.84;72.05;99776.47;5240352;28;19932;-84
2022/10/29 03:18:14;;;;;;;;;;;;;;;12.73;72.14;99776.63;5245573;28;19923;-85
2022/10/29 03:21:04;;;;;;;;;;;;;;;12.66;71.97;99779.00;5241868;28;19931;-86
2022/10/29 03:23:54;;;;;;;;;;;;;;;12.58;71.42;99787.66;5215785;28;20377;-84
2022/10/29 03:26:44;;;;;;;;;;;;;;;12.67;72.35;99770.84;5240046;28;19920;-85
2022/10/29 03:29:34;;;;;;;;;;;;;;;12.70;72.20;99775.06;5227205;28;19951;-85
2022/10/29 03:32:24;;;;;;;;;;;;;;;12.58;72.92;99774.38;5249858;28;19985;-85
2022/10/29 03:35:15;;;;;;;;;;;;;;;12.63;72.67;99769.47;5254748;28;19926;-85
2022/10/29 03:38:05;;;;;;;;;;;;;;;12.69;72.67;99763.59;5255138;28;19942;-85
2022/10/29 03:40:55;;;;;;;;;;;;;;;12.71;72.50;99766.09;5246257;28;19994;-85
2022/10/29 03:43:45;;;;;;;;;;;;;;;12.64;72.83;99781.78;5243140;28;19921;-85
2022/10/29 03:46:36;;;;;;;;;;;;;;;12.77;72.46;99773.53;5230739;28;20390;-85
2022/10/29 03:49:25;;;;;;;;;;;;;;;12.85;72.52;99770.19;5229946;28;19928;-85
2022/10/29 03:52:15;;;;;;;;;;;;;;;12.82;72.72;99770.47;5230806;28;20406;-85
2022/10/29 03:55:06;;;;;;;;;;;;;;;12.85;73.17;99776.34;5261352;28;19959;-85
2022/10/29 03:57:56;;;;;;;;;;;;;;;12.87;72.99;99770.88;5242144;28;19927;-84
2022/10/29 04:00:53;;;;;;;;;;;;;;;12.93;73.26;99776.47;5240331;28;20381;-84
2022/10/29 04:03:43;;;;;;;;;;;;;;;12.98;72.83;99773.41;5235831;28;20374;-85
2022/10/29 04:06:33;;;;;;;;;;;;;;;13.03;73.15;99760.50;5227134;28;19925;-84
2022/10/29 04:09:23;;;;;;;;;;;;;;;13.05;73.04;99761.22;5239232;28;19931;-86
2022/10/29 04:12:13;;;;;;;;;;;;;;;13.06;73.14;99762.91;5253636;28;19974;-84
2022/10/29 04:15:03;;;;;;;;;;;;;;;13.00;73.57;99759.97;5215299;28;19932;-84
2022/10/29 04:17:54;;;;;;;;;;;;;;;13.17;73.24;99761.91;5221909;28;19932;-85
2022/10/29 04:20:44;;;;;;;;;;;;;;;13.15;73.26;99764.72;5237218;28;19973;-86
2022/10/29 04:23:54;;;;;;;;;;;;;;;13.12;72.58;99770.31;5238677;28;19990;-85
2022/10/29 04:27:04;;;;;;;;;;;;;;;13.14;73.04;99784.34;5233248;28;20604;-85
2022/10/29 04:30:14;;;;;;;;;;;;;;;13.07;73.50;99771.72;5244328;28;19931;-85
2022/10/29 04:33:04;;;;;;;;;;;;;;;13.26;73.31;99768.25;5258856;28;19927;-85
2022/10/29 04:35:54;;;;;;;;;;;;;;;13.26;72.71;99771.75;5261265;28;19927;-85
2022/10/29 04:38:44;;;;;;;;;;;;;;;13.32;72.88;99776.50;5247165;28;19973;-83
2022/10/29 04:41:33;;;;;;;;;;;;;;;13.35;73.19;99770.06;5219718;28;19928;-83
2022/10/29 04:44:24;;;;;;;;;;;;;;;13.23;72.75;99781.81;5229153;28;20022;-83
2022/10/29 04:47:13;;;;;;;;;;;;;;;13.19;73.06;99780.41;5238702;28;19947;-84
2022/10/29 04:50:04;;;;;;;;;;;;;;;13.14;73.09;99789.69;5266958;28;19931;-83
2022/10/29 04:52:58;;;;;;;;;;;;;;;13.14;73.01;99792.34;5242215;28;19950;-85
2022/10/29 04:55:48;;;;;;;;;;;;;;;13.09;72.60;99781.25;5242607;28;19946;-84
2022/10/29 04:58:38;;;;;;;;;;;;;;;13.06;72.43;99781.53;5242788;28;20329;-84
2022/10/29 05:01:28;;;;;;;;;;;;;;;13.06;71.72;99778.03;5250211;28;19927;-84
2022/10/29 05:04:18;;;;;;;;;;;;;;;12.91;71.81;99788.25;5239185;28;19970;-83
2022/10/29 05:07:08;;;;;;;;;;;;;;;12.71;72.01;99779.41;5229704;28;19938;-85
2022/10/29 05:09:58;;;;;;;;;;;;;;;12.73;71.98;99776.63;5224559;28;20013;-84
2022/10/29 05:12:54;;;;;;;;;;;;;;;12.49;71.92;99782.34;5225037;28;19920;-84
2022/10/29 05:15:48;;;;;;;;;;;;;;;12.61;72.08;99776.72;5248680;28;19935;-85
2022/10/29 05:18:41;;;;;;;;;;;;;;;12.64;72.10;99776.44;5257429;28;19920;-84
2022/10/29 05:21:32;;;;;;;;;;;;;;;12.55;71.93;99769.31;5212701;28;20434;-85
2022/10/29 05:24:21;;;;;;;;;;;;;;;12.40;71.75;99774.19;5198856;28;19927;-83
2022/10/29 05:27:11;;;;;;;;;;;;;;;12.33;72.06;99781.03;5218927;28;19952;-85
2022/10/29 05:30:01;;;;;;;;;;;;;;;12.25;72.00;99775.56;5235938;28;19943;-85
2022/10/29 05:32:51;;;;;;;;;;;;;;;12.29;71.77;99782.28;5225292;28;19920;-84
2022/10/29 05:35:41;;;;;;;;;;;;;;;12.28;71.84;99775.25;5226878;28;19954;-85
2022/10/29 05:38:31;;;;;;;;;;;;;;;12.29;71.95;99771.63;5242078;28;20356;-85
2022/10/29 05:41:21;;;;;;;;;;;;;;;12.32;72.15;99770.53;5212848;28;20319;-84
2022/10/29 05:44:11;;;;;;;;;;;;;;;12.14;71.69;99763.19;5219434;28;19927;-84
2022/10/29 05:47:01;;;;;;;;;;;;;;;12.19;72.31;99762.78;5244330;28;20427;-84
2022/10/29 05:49:51;;;;;;;;;;;;;;;12.11;71.67;99773.25;5226545;28;19927;-84
2022/10/29 05:52:41;;;;;;;;;;;;;;;12.04;72.17;99767.63;5255333;28;20296;-84
2022/10/29 05:55:31;;;;;;;;;;;;;;;12.09;72.19;99767.25;5222742;28;20063;-84
2022/10/29 05:58:21;;;;;;;;;;;;;;;12.01;71.29;99775.88;5239045;28;19970;-83
2022/10/29 06:01:11;;;;;;;;;;;;;;;12.03;72.26;99776.59;5247386;28;19926;-84
2022/10/29 06:04:02;;;;;;;;;;;;;;;11.95;72.62;99774.59;5245454;28;19927;-84
2022/10/29 06:06:52;;;;;;;;;;;;;;;11.87;72.22;99781.56;5259620;28;20020;-84
2022/10/29 06:09:42;;;;;;;;;;;;;;;12.02;72.90;99774.91;5228839;28;19970;-84
2022/10/29 06:12:33;;;;;;;;;;;;;;;12.13;72.70;99777.47;5253846;28;19927;-84
2022/10/29 06:15:23;;;;;;;;;;;;;;;11.98;72.53;99773.47;5224872;28;19997;-84
2022/10/29 06:18:14;;;;;;;;;;;;;;;11.81;72.52;99747.50;5235218;28;20025;-83
2022/10/29 06:21:04;;;;;;;;;;;;;;;11.95;72.69;99763.97;5216947;28;20009;-84
2022/10/29 06:23:54;;;;;;;;;;;;;;;11.95;72.34;99773.75;5231340;28;20314;-84
2022/10/29 06:26:44;;;;;;;;;;;;;;;11.98;72.31;99776.13;5233858;28;19920;-84
2022/10/29 06:29:34;;;;;;;;;;;;;;;12.08;72.46;99776.16;5212415;28;19925;-86
2022/10/29 06:32:24;;;;;;;;;;;;;;;11.96;72.39;99770.13;5211123;28;19935;-85
2022/10/29 06:35:14;;;;;;;;;;;;;;;11.95;72.07;99774.59;5239416;28;19928;-85
2022/10/29 06:38:05;;;;;;;;;;;;;;;11.92;72.37;99782.84;5237424;28;19943;-84
2022/10/29 06:41:00;;;;;;;;;;;;;;;12.08;72.33;99781.47;5236068;28;19935;-85
2022/10/29 06:43:50;;;;;;;;;;;;;;;12.09;72.21;99786.69;5240881;28;19920;-85
2022/10/29 06:46:40;;;;;;;;;;;;;;;12.09;72.34;99786.69;5241797;28;19927;-86
2022/10/29 06:49:30;;;;;;;;;;;;;;;12.14;72.83;99775.63;5230777;28;19927;-85
2022/10/29 06:52:20;;;;;;;;;;;;;;;12.28;72.86;99779.72;5238321;28;19928;-84
2022/10/29 06:55:10;;;;;;;;;;;;;;;12.32;72.62;99786.50;5237415;28;19928;-83
2022/10/29 06:58:01;;;;;;;;;;;;;;;12.40;72.96;99783.97;5246468;28;20497;-84
2022/10/29 07:00:53;;;;;;;;;;;;;;;12.49;73.19;99785.81;5232368;28;20010;-85
2022/10/29 07:03:43;;;;;;;;;;;;;;;12.69;73.51;99779.56;5247201;28;19920;-84
2022/10/29 07:06:35;;;;;;;;;;;;;;;12.72;73.08;99772.28;5235957;28;19928;-84
2022/10/29 07:09:25;;;;;;;;;;;;;;;12.91;73.30;99777.59;5210967;28;19927;-84
2022/10/29 07:12:15;;;;;;;;;;;;;;;12.93;73.23;99778.31;5227522;28;20298;-85
2022/10/29 07:15:05;;;;;;;;;;;;;;;13.11;72.76;99786.41;5240463;28;19994;-87
2022/10/29 07:18:03;;;;;;;;;;;;;;;13.04;73.18;99779.97;5234381;28;19987;-87
2022/10/29 07:21:03;;;;;;;;;;;;;;;12.99;72.77;99788.41;5216574;28;19943;-85
2022/10/29 07:24:10;;;;;;;;;;;;;;;13.04;73.70;99786.16;5203796;28;19927;-86
2022/10/29 07:27:00;;;;;;;;;;;;;;;13.15;73.86;99791.34;5221325;28;19944;-87
2022/10/29 07:29:50;;;;;;;;;;;;;;;13.19;72.41;99797.22;5236733;28;19999;-86
2022/10/29 07:32:40;;;;;;;;;;;;;;;13.38;73.08;99796.41;5247234;28;20005;-86
2022/10/29 07:35:31;;;;;;;;;;;;;;;13.62;73.06;99802.09;5274333;28;19969;-85
2022/10/29 07:38:22;;;;;;;;;;;;;;;13.75;72.86;99798.31;5245684;28;19926;-84
2022/10/29 07:41:13;;;;;;;;;;;;;;;14.13;71.47;99796.47;5231833;28;19920;-84
2022/10/29 07:44:04;;;;;;;;;;;;;;;14.37;70.94;99804.81;5251450;28;19920;-87
2022/10/29 07:46:54;;;;;;;;;;;;;;;14.90;69.94;99811.22;5265495;28;19931;-84
2022/10/29 07:49:45;;;;;;;;;;;;;;;15.37;69.34;99817.19;5255293;28;19925;-84
2022/10/29 07:52:35;;;;;;;;;;;;;;;15.87;67.04;99821.09;5226043;28;20050;-85
2022/10/29 07:55:26;;;;;;;;;;;;;;;16.14;67.88;99812.03;5217958;28;19946;-84
2022/10/29 07:58:17;;;;;;;;;;;;;;;16.69;66.39;99814.28;5239112;28;19962;-84
2022/10/29 08:01:08;;;;;;;;;;;;;;;16.50;66.38;99809.19;5244834;28;19951;-85
2022/10/29 08:03:59;;;;;;;;;;;;;;;16.35;66.08;99807.09;5238213;28;19988;-86
2022/10/29 08:06:51;;;;;;;;;;;;;;;16.28;66.70;99805.25;5237122;28;19926;-84
2022/10/29 08:10:23;;;;;;;;;;;;;;;16.20;66.87;99806.06;5228005;28;20496;-84
2022/10/29 08:13:13;;;;;;;;;;;;;;;16.10;67.51;99808.84;5230908;28;19920;-83
2022/10/29 08:16:03;;;;;;;;;;;;;;;16.49;67.08;99804.81;5222380;28;19927;-84
2022/10/29 08:18:55;;;;;;;;;;;;;;;16.55;67.75;99805.00;5227895;28;20396;-84
2022/10/29 08:21:46;;;;;;;;;;;;;;;16.89;66.06;99804.16;5234777;28;20401;-84
2022/10/29 08:24:37;;;;;;;;;;;;;;;16.91;67.52;99800.28;5228011;28;19921;-84
2022/10/29 08:28:00;;;;;;;;;;;;;;;16.85;67.47;99802.78;5234416;28;19931;-84
2022/10/29 08:30:50;;;;;;;;;;;;;;;16.95;67.07;99803.47;5223670;28;20512;-83
2022/10/29 08:33:41;;;;;;;;;;;;;;;16.83;67.41;99802.13;5218756;28;19987;-84
2022/10/29 08:36:31;;;;;;;;;;;;;;;16.87;67.71;99793.56;5214769;28;20045;-83
2022/10/29 08:39:21;;;;;;;;;;;;;;;17.22;68.04;99796.97;5218402;28;19989;-83
2022/10/29 08:42:29;;;;;;;;;;;;;;;17.29;67.48;99797.97;5222055;28;20278;-84
2022/10/29 08:45:23;;;;;;;;;;;;;;;17.24;67.68;99794.94;5225348;28;20456;-84
2022/10/29 08:48:22;;;;;;;;;;;;;;;17.23;68.73;99797.81;5231804;28;19978;-83
2022/10/29 08:51:12;;;;;;;;;;;;;;;17.44;68.18;99808.03;5245385;28;19988;-83
2022/10/29 08:54:02;;;;;;;;;;;;;;;17.70;67.50;99802.47;5233300;28;19924;-83
2022/10/29 08:57:14;;;;;;;;;;;;;;;17.83;67.49;99792.91;5286017;28;19953;-84
2022/10/29 09:00:13;;;;;;;;;;;;;;;17.93;66.85;99805.31;5226439;28;20397;-83
2022/10/29 09:03:11;;;;;;;;;;;;;;;17.83;68.02;99806.34;5236682;28;19927;-82
2022/10/29 09:06:07;;;;;;;;;;;;;;;17.90;67.60;99811.00;5227030;28;19924;-83
2022/10/29 09:09:25;;;;;;;;;;;;;;;17.91;66.78;99802.78;5237321;28;19920;-83
2022/10/29 09:12:31;;;;;;;;;;;;;;;17.86;67.34;99802.47;5232531;28;19925;-83
2022/10/29 09:15:34;;;;;;;;;;;;;;;18.97;63.64;99804.19;5210808;28;20477;-84
2022/10/29 09:18:28;;;;;;;;;;;;;;;19.63;62.96;99789.22;5203085;28;19986;-83
2022/10/29 09:21:32;;;;;;;;;;;;;;;19.88;59.53;99791.69;5245250;28;19969;-84
2022/10/29 09:24:33;;;;;;;;;;;;;;;20.24;59.40;99790.94;5219142;28;19942;-84
2022/10/29 09:27:42;;;;;;;;;;;;;;;20.95;58.27;99786.63;5241810;28;19928;-83
2022/10/29 09:30:35;;;;;;;;;;;;;;;21.48;56.58;99779.06;5237150;28;19982;-84
2022/10/29 09:33:26;;;;;;;;;;;;;;;21.57;55.16;99777.06;5238036;28;20660;-83
2022/10/29 09:36:17;;;;;;;;;;;;;;;21.61;54.75;99774.78;5233997;28;19929;-84
2022/10/29 09:39:11;;;;;;;;;;;;;;;21.73;54.78;99775.94;5241046;28;19921;-84
2022/10/29 09:42:06;;;;;;;;;;;;;;;22.01;54.10;99775.88;5234221;28;19927;-83
2022/10/29 09:44:58;;;;;;;;;;;;;;;22.01;54.20;99768.63;5244040;28;19981;-83
2022/10/29 09:48:07;;;;;;;;;;;;;;;22.58;52.35;99763.91;5234588;28;19965;-84
2022/10/29 09:51:01;;;;;;;;;;;;;;;22.79;53.34;99765.66;5223081;28;19973;-83
2022/10/29 09:53:51;;;;;;;;;;;;;;;23.08;52.43;99758.22;5235251;28;20338;-83
2022/10/29 09:56:44;;;;;;;;;;;;;;;23.41;51.78;99758.22;5228277;28;19927;-83
2022/10/29 09:59:39;;;;;;;;;;;;;;;23.45;51.72;99763.03;5226621;28;19943;-83
2022/10/29 10:02:36;;;;;;;;;;;;;;;23.43;51.70;99761.56;5222446;28;20003;-84
2022/10/29 10:05:32;;;;;;;;;;;;;;;23.45;49.97;99763.03;5208307;28;19991;-84
2022/10/29 10:08:22;;;;;;;;;;;;;;;23.70;50.22;99759.72;5222867;28;19920;-84
2022/10/29 10:11:17;;;;;;;;;;;;;;;23.40;50.33;99760.13;5226292;28;19920;-83
2022/10/29 10:14:16;;;;;;;;;;;;;;;23.41;51.68;99752.81;5245342;28;19931;-83
2022/10/29 10:17:06;;;;;;;;;;;;;;;23.53;51.44;99759.28;5246014;28;19920;-84
2022/10/29 10:19:56;;;;;;;;;;;;;;;23.67;51.02;99747.41;5239693;28;19974;-85
2022/10/29 10:22:46;;;;;;;;;;;;;;;23.33;50.89;99753.88;5237958;28;19939;-84
2022/10/29 10:25:37;;;;;;;;;;;;;;;23.01;53.31;99744.69;5220278;28;20066;-82
2022/10/29 10:28:29;;;;;;;;;;;;;;;22.90;53.12;99742.56;5240683;28;19936;-83
2022/10/29 10:31:19;;;;;;;;;;;;;;;22.81;52.99;99746.50;5224382;28;20005;-83
2022/10/29 10:34:20;;;;;;;;;;;;;;;22.47;53.82;99745.59;5232756;28;19991;-83
2022/10/29 10:37:17;;;;;;;;;;;;;;;22.43;53.06;99734.34;5228736;28;19943;-82
2022/10/29 10:40:19;;;;;;;;;;;;;;;22.47;55.59;99729.38;5238402;28;19920;-82
2022/10/29 10:43:22;;;;;;;;;;;;;;;22.61;54.71;99724.84;5236640;28;19978;-82
2022/10/29 10:46:21;;;;;;;;;;;;;;;22.53;54.07;99723.16;5232324;28;19927;-83
2022/10/29 10:49:23;;;;;;;;;;;;;;;22.61;54.85;99714.84;5233040;28;19920;-83
2022/10/29 10:52:16;;;;;;;;;;;;;;;22.87;54.51;99700.53;5227226;28;19994;-82
2022/10/29 10:55:08;;;;;;;;;;;;;;;23.04;52.89;99709.13;5229054;28;20081;-82
2022/10/29 10:58:13;;;;;;;;;;;;;;;22.88;52.85;99704.94;5214357;28;20019;-83
2022/10/29 11:01:05;;;;;;;;;;;;;;;22.91;52.25;99696.41;5249788;28;19998;-83
2022/10/29 11:03:56;;;;;;;;;;;;;;;23.07;51.71;99697.06;5217215;28;19939;-83
2022/10/29 11:06:48;;;;;;;;;;;;;;;23.19;53.01;99695.41;5226740;28;19931;-82
2022/10/29 11:09:42;;;;;;;;;;;;;;;23.36;52.85;99693.09;5213614;28;19931;-83
2022/10/29 11:12:32;;;;;;;;;;;;;;;23.36;50.64;99691.22;5240403;28;20023;-84
2022/10/29 11:15:25;;;;;;;;;;;;;;;23.44;52.80;99690.16;5242917;28;19982;-83
2022/10/29 11:18:23;;;;;;;;;;;;;;;23.83;51.07;99681.16;5241198;28;19935;-84
2022/10/29 11:21:20;;;;;;;;;;;;;;;23.81;50.28;99680.56;5245692;28;20258;-83
2022/10/29 11:24:16;;;;;;;;;;;;;;;23.78;51.78;99677.44;5214509;28;19940;-84
2022/10/29 11:27:16;;;;;;;;;;;;;;;23.94;51.48;99670.69;5214417;28;20062;-84
2022/10/29 11:30:11;;;;;;;;;;;;;;;24.04;50.60;99671.06;5248360;28;19927;-83
2022/10/29 11:33:23;;;;;;;;;;;;;;;24.14;50.48;99666.06;5222897;28;20278;-84
2022/10/29 11:36:13;;;;;;;;;;;;;;;24.22;51.67;99663.06;5234618;28;19959;-83
2022/10/29 11:39:14;;;;;;;;;;;;;;;24.15;50.85;99663.09;5221674;28;19927;-83
2022/10/29 11:42:08;;;;;;;;;;;;;;;24.49;49.21;99650.22;5236693;28;19943;-83
2022/10/29 11:44:58;;;;;;;;;;;;;;;24.38;51.31;99653.63;5240361;28;20451;-83
2022/10/29 11:48:02;;;;;;;;;;;;;;;24.37;50.54;99643.81;5236703;28;19958;-83
2022/10/29 11:51:02;;;;;;;;;;;;;;;24.43;50.98;99644.84;5252815;28;19999;-82
2022/10/29 11:54:10;;;;;;;;;;;;;;;24.57;50.56;99641.03;5226953;28;19943;-84
2022/10/29 11:57:07;;;;;;;;;;;;;;;24.87;47.58;99634.94;5213029;28;19928;-85
2022/10/29 12:00:19;;;;;;;;;;;;;;;24.68;48.39;99632.16;5221335;28;19971;-84
2022/10/29 12:03:45;;;;;;;;;;;;;;;24.68;47.41;99629.47;5220631;28;19928;-85
2022/10/29 12:06:35;;;;;;;;;;;;;;;24.59;46.30;99622.63;5227911;28;20306;-84
2022/10/29 12:09:25;;;;;;;;;;;;;;;24.44;48.04;99622.13;5243324;28;20005;-83
2022/10/29 12:12:18;;;;;;;;;;;;;;;24.63;49.18;99620.31;5238831;28;19920;-84
2022/10/29 12:15:34;;;;;;;;;;;;;;;24.77;49.05;99611.88;5246207;28;20028;-85
2022/10/29 12:18:35;;;;;;;;;;;;;;;24.95;48.62;99616.50;5252886;28;19931;-83
2022/10/29 12:21:25;;;;;;;;;;;;;;;24.91;47.29;99618.00;5237804;28;19960;-84
2022/10/29 12:24:24;;;;;;;;;;;;;;;24.95;47.82;99607.53;5233135;28;19931;-85
2022/10/29 12:27:33;;;;;;;;;;;;;;;25.05;48.82;99602.44;5214648;28;19928;-84
2022/10/29 12:30:23;;;;;;;;;;;;;;;25.07;46.99;99597.63;5241476;28;20013;-84
2022/10/29 12:33:19;;;;;;;;;;;;;;;25.06;46.15;99591.34;5234654;28;19927;-83
2022/10/29 12:36:15;;;;;;;;;;;;;;;24.96;46.77;99587.50;5224375;28;19995;-84
2022/10/29 12:39:13;;;;;;;;;;;;;;;24.87;46.55;99586.09;5220115;28;19927;-84
2022/10/29 12:42:13;;;;;;;;;;;;;;;24.77;46.95;99582.03;5227266;28;20038;-82
2022/10/29 12:45:22;;;;;;;;;;;;;;;24.75;46.44;99572.47;5234673;28;20397;-83
2022/10/29 12:48:31;;;;;;;;;;;;;;;24.75;47.11;99575.16;5249640;28;19927;-82
2022/10/29 12:51:35;;;;;;;;;;;;;;;24.82;48.70;99560.50;5230731;28;19967;-83
2022/10/29 12:54:34;;;;;;;;;;;;;;;24.69;48.64;99560.59;5226408;28;19926;-83
2022/10/29 12:57:32;;;;;;;;;;;;;;;25.10;47.45;99556.47;5236430;28;20287;-83
2022/10/29 13:00:22;;;;;;;;;;;;;;;25.10;48.46;99545.63;5221552;28;19924;-83
2022/10/29 13:03:32;;;;;;;;;;;;;;;25.33;47.72;99539.56;5229303;28;20420;-83
2022/10/29 13:06:43;;;;;;;;;;;;;;;24.95;49.51;99534.28;5233200;28;19973;-84
2022/10/29 13:09:34;;;;;;;;;;;;;;;25.10;49.35;99537.50;5239631;28;19939;-84
2022/10/29 13:12:44;;;;;;;;;;;;;;;24.94;49.61;99532.66;5233624;28;19920;-84
2022/10/29 13:15:43;;;;;;;;;;;;;;;25.16;48.94;99522.19;5263411;28;19981;-84
2022/10/29 13:18:54;;;;;;;;;;;;;;;24.78;49.83;99513.19;5216490;28;19943;-83
2022/10/29 13:21:53;;;;;;;;;;;;;;;24.66;50.32;99514.94;5220546;28;20352;-82
2022/10/29 13:24:43;;;;;;;;;;;;;;;24.88;49.23;99506.41;5234248;28;19927;-82
2022/10/29 13:27:34;;;;;;;;;;;;;;;24.84;49.41;99508.75;5252316;28;19920;-83
2022/10/29 13:30:26;;;;;;;;;;;;;;;24.64;50.00;99503.53;5240498;28;20022;-82
2022/10/29 13:33:22;;;;;;;;;;;;;;;24.73;49.27;99507.59;5226113;28;20400;-82
2022/10/29 13:36:15;;;;;;;;;;;;;;;24.74;49.02;99501.13;5231091;28;20147;-83
2022/10/29 13:39:17;;;;;;;;;;;;;;;24.63;49.08;99506.44;5235511;28;19932;-83
2022/10/29 13:42:10;;;;;;;;;;;;;;;24.56;50.28;99506.50;5239334;28;20023;-84
2022/10/29 13:45:00;;;;;;;;;;;;;;;24.59;50.24;99504.16;5216820;28;20423;-82
2022/10/29 13:47:54;;;;;;;;;;;;;;;24.79;50.35;99498.56;5223704;28;19920;-82
2022/10/29 13:50:47;;;;;;;;;;;;;;;24.69;50.74;99506.38;5213497;28;20236;-83
2022/10/29 13:53:40;;;;;;;;;;;;;;;24.70;50.90;99501.78;5230327;28;19969;-82
2022/10/29 13:56:38;;;;;;;;;;;;;;;24.67;51.91;99497.66;5242230;28;19980;-82
2022/10/29 13:59:35;;;;;;;;;;;;;;;24.54;51.52;99498.59;5214054;28;19943;-83
2022/10/29 14:02:43;;;;;;;;;;;;;;;24.46;51.11;99496.16;5245863;28;19951;-82
2022/10/29 14:05:37;;;;;;;;;;;;;;;24.48;50.98;99493.25;5256346;28;19920;-82
2022/10/29 14:08:30;;;;;;;;;;;;;;;24.58;50.53;99501.69;5242706;28;19947;-82
2022/10/29 14:11:23;;;;;;;;;;;;;;;24.57;50.62;99492.75;5244751;28;20385;-82
2022/10/29 14:14:22;;;;;;;;;;;;;;;24.56;52.11;99495.66;5232085;28;19965;-82
2022/10/29 14:17:14;;;;;;;;;;;;;;;24.46;53.34;99498.88;5237347;28;19973;-83
2022/10/29 14:20:04;;;;;;;;;;;;;;;24.38;53.32;99494.53;5237677;28;19960;-82
2022/10/29 14:22:55;;;;;;;;;;;;;;;24.41;52.97;99490.59;5253286;28;20346;-82
2022/10/29 14:25:49;;;;;;;;;;;;;;;24.36;52.66;99491.19;5263950;28;20513;-82
2022/10/29 14:28:39;;;;;;;;;;;;;;;24.40;51.75;99480.75;5234804;28;19995;-81
2022/10/29 14:31:29;;;;;;;;;;;;;;;24.41;51.72;99477.03;5235869;28;19944;-82
2022/10/29 14:34:26;;;;;;;;;;;;;;;24.34;52.56;99487.91;5236766;28;19927;-82
2022/10/29 14:37:30;;;;;;;;;;;;;;;24.36;51.92;99479.53;5224617;28;20294;-82
2022/10/29 14:40:23;;;;;;;;;;;;;;;24.24;51.67;99476.72;5247443;28;19973;-81
2022/10/29 14:43:21;;;;;;;;;;;;;;;24.21;52.56;99481.75;5241358;28;19928;-82
2022/10/29 14:46:17;;;;;;;;;;;;;;;24.14;53.13;99479.09;5243456;28;20351;-82
2022/10/29 14:49:10;;;;;;;;;;;;;;;24.06;53.42;99474.78;5243703;28;19946;-82
2022/10/29 14:52:16;;;;;;;;;;;;;;;24.00;53.53;99470.22;5253316;28;19974;-81
2022/10/29 14:55:07;;;;;;;;;;;;;;;23.88;54.26;99475.53;5251804;28;19927;-81
2022/10/29 14:58:06;;;;;;;;;;;;;;;23.79;54.39;99479.53;5239657;28;19930;-82
2022/10/29 15:01:03;;;;;;;;;;;;;;;23.64;54.69;99477.13;5232226;28;20371;-82
2022/10/29 15:03:57;;;;;;;;;;;;;;;23.71;54.25;99474.41;5231054;28;19930;-81
2022/10/29 15:06:47;;;;;;;;;;;;;;;23.56;54.71;99468.41;5235299;28;20022;-81
2022/10/29 15:09:37;;;;;;;;;;;;;;;23.63;54.72;99470.00;5221123;28;20032;-82
2022/10/29 15:12:38;;;;;;;;;;;;;;;23.56;54.44;99476.53;5212415;28;20393;-82
2022/10/29 15:15:28;;;;;;;;;;;;;;;23.46;54.43;99474.28;5233871;28;19931;-82
2022/10/29 15:18:20;;;;;;;;;;;;;;;23.44;54.95;99474.50;5260949;28;19931;-82
2022/10/29 15:21:11;;;;;;;;;;;;;;;23.32;55.18;99468.09;5234308;28;20149;-82
2022/10/29 15:24:03;;;;;;;;;;;;;;;23.10;55.77;99481.09;5235861;28;20191;-82
2022/10/29 15:26:55;;;;;;;;;;;;;;;23.08;55.36;99474.22;5248106;28;19947;-83
2022/10/29 15:29:47;;;;;;;;;;;;;;;23.04;54.68;99475.69;5255687;28;20164;-83
2022/10/29 15:32:37;;;;;;;;;;;;;;;23.04;54.81;99473.81;5232040;28;19927;-82
2022/10/29 15:35:27;;;;;;;;;;;;;;;22.82;55.31;99473.25;5230681;28;19927;-83
2022/10/29 15:38:29;;;;;;;;;;;;;;;22.67;55.32;99469.94;5230093;28;19921;-82
2022/10/29 15:41:33;;;;;;;;;;;;;;;22.69;54.80;99465.16;5252609;28;20053;-83
2022/10/29 15:44:35;;;;;;;;;;;;;;;22.66;54.46;99462.88;5230339;28;19939;-83
2022/10/29 15:47:26;;;;;;;;;;;;;;;22.50;54.08;99464.97;5233111;28;19944;-83
2022/10/29 15:50:22;;;;;;;;;;;;;;;22.47;54.31;99462.69;5252900;28;19943;-83
2022/10/29 15:53:13;;;;;;;;;;;;;;;22.54;53.97;99475.34;5251803;28;19988;-83
2022/10/29 15:56:04;;;;;;;;;;;;;;;22.40;54.55;99467.25;5247074;28;20420;-83
2022/10/29 15:58:55;;;;;;;;;;;;;;;22.38;54.10;99472.03;5260612;28;19938;-84
2022/10/29 16:01:45;;;;;;;;;;;;;;;22.24;54.69;99464.97;5219293;28;19987;-84
2022/10/29 16:04:35;;;;;;;;;;;;;;;22.20;54.59;99469.16;5215641;28;19928;-83
2022/10/29 16:07:25;;;;;;;;;;;;;;;22.14;54.64;99469.94;5216741;28;19928;-85
2022/10/29 16:10:20;;;;;;;;;;;;;;;21.84;56.27;99477.59;5230799;28;20406;-84
2022/10/29 16:13:10;;;;;;;;;;;;;;;21.60;56.88;99471.72;5203742;28;19928;-84
2022/10/29 16:16:00;;;;;;;;;;;;;;;21.36;57.21;99473.13;5206384;28;19968;-83
2022/10/29 16:18:57;;;;;;;;;;;;;;;21.15;58.40;99475.88;5212951;28;20014;-83
2022/10/29 16:22:14;;;;;;;;;;;;;;;21.05;58.44;99478.94;5232439;28;19928;-83
2022/10/29 16:25:51;;;;;;;;;;;;;;;20.96;58.04;99472.91;5263100;28;19913;-84
2022/10/29 16:28:42;;;;;;;;;;;;;;;20.80;58.64;99465.97;5255173;28;19920;-83
2022/10/29 16:31:32;;;;;;;;;;;;;;;20.63;59.44;99468.16;5247968;28;19970;-83
2022/10/29 16:34:28;;;;;;;;;;;;;;;20.51;59.53;99469.72;5234637;28;19934;-84
2022/10/29 16:37:20;;;;;;;;;;;;;;;20.33;60.15;99472.00;5225354;28;19920;-83